Time;durP1;ratioP1;P1;durP2;ratioP2;P2;SDS_P1;SDS_P2;PMS_P1;PMS_P2;Temp;Humidity;BMP_temperature;BMP_pressure;BME280_temperature;BME280_humidity;BME280_pressure;Samples;Min_cycle;Max_cycle;Signal;HPM_P1;HPM_P2
2022/08/27 00:01:42;;;;;;;11.18;6.60;;;;;;;23.43;74.10;100691.66;5006524;28;20074;-69
2022/08/27 00:04:08;;;;;;;10.98;6.97;;;;;;;23.21;75.25;100685.88;5000737;28;20041;-69
2022/08/27 00:06:35;;;;;;;9.77;6.82;;;;;;;23.44;74.30;100685.28;5001721;28;20065;-69
2022/08/27 00:09:02;;;;;;;11.45;7.35;;;;;;;23.29;74.81;100687.72;5005934;28;20498;-69
2022/08/27 00:11:29;;;;;;;11.68;6.88;;;;;;;23.37;74.63;100684.25;5006633;28;20054;-69
2022/08/27 00:13:56;;;;;;;18.27;8.07;;;;;;;23.30;75.21;100686.75;5000340;28;20050;-69
2022/08/27 00:16:23;;;;;;;15.43;6.95;;;;;;;22.94;76.74;100678.09;4979072;28;20117;-69
2022/08/27 00:18:50;;;;;;;10.43;6.50;;;;;;;22.48;77.87;100683.78;4966994;28;20069;-69
2022/08/27 00:21:17;;;;;;;9.27;5.63;;;;;;;22.48;77.67;100687.28;4969208;28;20097;-69
2022/08/27 00:23:44;;;;;;;7.65;5.25;;;;;;;22.15;78.27;100693.38;4973835;28;20056;-69
2022/08/27 00:26:10;;;;;;;8.85;5.18;;;;;;;22.18;77.83;100699.25;4999534;28;20415;-69
2022/08/27 00:28:38;;;;;;;8.38;4.82;;;;;;;22.03;78.30;100695.47;5005850;28;20489;-69
2022/08/27 00:31:05;;;;;;;7.97;4.90;;;;;;;22.02;78.63;100691.13;5003831;28;20513;-69
2022/08/27 00:33:32;;;;;;;11.20;5.82;;;;;;;22.32;77.44;100689.84;4999187;28;20057;-69
2022/08/27 00:35:59;;;;;;;10.23;5.32;;;;;;;22.60;76.30;100687.88;4981281;28;20467;-69
2022/08/27 00:38:25;;;;;;;12.70;5.43;;;;;;;22.36;77.54;100701.09;4967179;28;20046;-69
2022/08/27 00:40:54;;;;;;;12.85;6.38;;;;;;;22.20;78.66;100697.28;4969227;28;20046;-69
2022/08/27 00:43:23;;;;;;;15.93;6.38;;;;;;;22.17;79.42;100699.44;4987388;28;20058;-69
2022/08/27 00:45:54;;;;;;;15.02;6.20;;;;;;;21.96;80.37;100698.91;4999667;28;20101;-69
2022/08/27 00:48:24;;;;;;;12.02;6.63;;;;;;;21.81;81.29;100683.38;5006476;28;20037;-69
2022/08/27 00:50:53;;;;;;;11.88;7.00;;;;;;;21.81;81.74;100686.06;5004696;28;20092;-69
2022/08/27 00:53:24;;;;;;;11.02;6.80;;;;;;;21.91;81.04;100683.34;5006688;28;20065;-69
2022/08/27 00:55:57;;;;;;;13.73;7.65;;;;;;;22.01;81.37;100685.94;5000831;28;20489;-69
2022/08/27 00:58:27;;;;;;;13.25;6.72;;;;;;;22.19;79.73;100676.91;4993529;28;20500;-68
2022/08/27 01:00:56;;;;;;;10.05;6.45;;;;;;;21.87;81.53;100679.28;5004652;28;20073;-69
2022/08/27 01:03:23;;;;;;;12.85;7.20;;;;;;;21.96;80.74;100685.53;5002571;28;20510;-69
2022/08/27 01:05:50;;;;;;;10.98;6.50;;;;;;;21.83;81.38;100688.59;4997928;28;20089;-68
2022/08/27 01:08:20;;;;;;;11.38;6.82;;;;;;;21.90;80.78;100688.81;4987501;28;20121;-68
2022/08/27 01:10:47;;;;;;;14.43;6.43;;;;;;;22.02;80.23;100693.81;4985735;28;20046;-68
2022/08/27 01:13:17;;;;;;;12.27;6.13;;;;;;;21.69;81.55;100699.78;4987975;28;20038;-68
2022/08/27 01:15:43;;;;;;;10.18;6.10;;;;;;;21.76;81.03;100695.53;4995516;28;20799;-68
2022/08/27 01:18:13;;;;;;;13.23;6.57;;;;;;;21.79;80.65;100696.06;4993557;28;20050;-68
2022/08/27 01:20:45;;;;;;;8.85;6.38;;;;;;;21.83;80.39;100686.75;4989692;28;20050;-68
2022/08/27 01:23:18;;;;;;;12.25;6.28;;;;;;;21.94;79.55;100692.88;4983574;28;20494;-68
2022/08/27 01:25:46;;;;;;;9.50;6.45;;;;;;;21.84;80.17;100690.25;4987548;28;20042;-68
2022/08/27 01:28:13;;;;;;;11.63;6.65;;;;;;;21.78;80.18;100698.88;5001430;28;20091;-68
2022/08/27 01:30:41;;;;;;;10.55;6.35;;;;;;;22.03;78.95;100689.28;5007864;28;20053;-68
2022/08/27 01:33:13;;;;;;;12.50;6.47;;;;;;;21.75;80.41;100691.16;5004416;28;20049;-68
2022/08/27 01:35:40;;;;;;;9.73;6.70;;;;;;;21.44;81.74;100685.34;4998345;28;20538;-68
2022/08/27 01:38:06;;;;;;;13.63;6.80;;;;;;;21.43;81.67;100682.84;4989026;28;20073;-68
2022/08/27 01:40:32;;;;;;;10.43;6.47;;;;;;;21.58;80.67;100692.00;4975394;28;20047;-68
2022/08/27 01:43:01;;;;;;;11.95;6.38;;;;;;;21.93;79.31;100692.03;4971820;28;20046;-68
2022/08/27 01:45:29;;;;;;;9.90;6.35;;;;;;;21.98;78.92;100702.25;4983591;28;20128;-68
2022/08/27 01:47:57;;;;;;;13.27;6.82;;;;;;;21.53;81.20;100699.63;5003271;28;20046;-69
2022/08/27 01:50:29;;;;;;;12.52;7.43;;;;;;;21.50;81.76;100697.25;5005494;28;20422;-69
2022/08/27 01:52:55;;;;;;;12.38;7.13;;;;;;;21.48;81.77;100707.22;4995507;28;20038;-69
2022/08/27 01:55:25;;;;;;;11.05;7.55;;;;;;;21.63;81.59;100703.03;4994770;28;20062;-69
2022/08/27 01:57:51;;;;;;;11.80;7.68;;;;;;;21.85;80.33;100713.28;5010973;28;20056;-69
2022/08/27 02:00:23;;;;;;;13.00;7.68;;;;;;;22.21;78.73;100712.31;5022149;28;20053;-69
2022/08/27 02:02:49;;;;;;;11.73;7.97;;;;;;;22.06;78.67;100713.84;5003453;28;20473;-69
2022/08/27 02:05:16;;;;;;;14.43;7.32;;;;;;;22.14;78.51;100718.41;5005150;28;20342;-69
2022/08/27 02:07:42;;;;;;;12.48;7.68;;;;;;;22.23;78.00;100721.00;5004007;28;20049;-69
2022/08/27 02:10:11;;;;;;;12.18;8.15;;;;;;;21.99;79.54;100727.97;5004506;28;20461;-69
2022/08/27 02:12:38;;;;;;;12.85;7.45;;;;;;;22.13;78.88;100728.28;5003852;28;20052;-68
2022/08/27 02:15:05;;;;;;;15.60;8.07;;;;;;;21.64;81.19;100734.09;5003991;28;20077;-68
2022/08/27 02:17:33;;;;;;;13.10;7.72;;;;;;;21.80;81.33;100732.41;5004128;28;20120;-68
2022/08/27 02:20:00;;;;;;;12.68;7.60;;;;;;;21.74;81.56;100726.84;5005578;28;20442;-68
2022/08/27 02:22:27;;;;;;;12.18;7.20;;;;;;;21.93;80.78;100734.75;5004211;28;20494;-68
2022/08/27 02:24:53;;;;;;;10.77;7.32;;;;;;;22.00;80.45;100735.81;5004083;28;20124;-69
2022/08/27 02:27:20;;;;;;;14.95;7.50;;;;;;;22.02;80.15;100736.53;5006390;28;20045;-68
2022/08/27 02:29:46;;;;;;;11.68;7.63;;;;;;;21.92;80.78;100735.72;5003293;28;20403;-68
2022/08/27 02:32:13;;;;;;;9.98;7.18;;;;;;;22.14;79.78;100729.94;4991687;28;20050;-68
2022/08/27 02:34:41;;;;;;;13.30;8.35;;;;;;;22.12;79.43;100736.44;5001137;28;20119;-68
2022/08/27 02:37:07;;;;;;;17.20;8.13;;;;;;;22.17;79.37;100737.63;5000079;28;20065;-68
2022/08/27 02:39:34;;;;;;;14.70;7.28;;;;;;;22.01;80.22;100750.00;4978103;28;20081;-68
2022/08/27 02:42:00;;;;;;;13.43;7.97;;;;;;;22.00;80.99;100743.84;4982575;28;20085;-68
2022/08/27 02:44:27;;;;;;;13.02;8.05;;;;;;;22.08;80.01;100741.25;4977065;28;20046;-68
2022/08/27 02:46:53;;;;;;;11.52;8.02;;;;;;;21.89;81.17;100737.84;5003403;28;20038;-68
2022/08/27 02:49:20;;;;;;;18.77;8.40;;;;;;;22.08;80.07;100727.03;5003917;28;20073;-69
2022/08/27 02:51:47;;;;;;;15.68;8.80;;;;;;;21.77;81.63;100731.88;5004337;28;20049;-68
2022/08/27 02:54:13;;;;;;;13.93;9.13;;;;;;;21.99;80.74;100730.66;4995633;28;20514;-68
2022/08/27 02:56:40;;;;;;;16.75;9.25;;;;;;;22.13;79.94;100728.28;4995082;28;20073;-68
2022/08/27 02:59:06;;;;;;;16.42;9.52;;;;;;;22.17;80.04;100729.63;5010997;28;20080;-68
2022/08/27 03:01:32;;;;;;;17.67;9.63;;;;;;;22.29;79.69;100733.75;5003550;28;20605;-68
2022/08/27 03:03:59;;;;;;;16.88;9.80;;;;;;;22.37;78.59;100734.78;5004371;28;20042;-68
2022/08/27 03:06:26;;;;;;;21.90;10.90;;;;;;;22.39;78.60;100730.16;5003257;28;20136;-69
2022/08/27 03:08:53;;;;;;;18.17;10.10;;;;;;;22.33;79.19;100718.25;5003760;28;20050;-68
2022/08/27 03:11:21;;;;;;;19.30;10.35;;;;;;;22.07;80.17;100720.88;5005225;28;20065;-69
2022/08/27 03:13:47;;;;;;;20.02;11.68;;;;;;;22.08;81.33;100719.03;4986942;28;20081;-69
2022/08/27 03:16:13;;;;;;;28.10;12.63;;;;;;;22.15;80.50;100728.94;4995391;28;20046;-69
2022/08/27 03:18:39;;;;;;;34.17;14.85;;;;;;;21.68;83.43;100732.81;5005208;28;20123;-69
2022/08/27 03:21:07;;;;;;;31.70;14.57;;;;;;;21.74;83.90;100737.53;4987637;28;20502;-69
2022/08/27 03:23:34;;;;;;;27.02;14.13;;;;;;;21.58;85.17;100740.03;4989326;28;20038;-69
2022/08/27 03:26:09;;;;;;;29.23;15.07;;;;;;;21.99;83.11;100726.13;5007900;28;20065;-69
2022/08/27 03:28:36;;;;;;;31.48;15.65;;;;;;;21.67;84.26;100728.44;5007179;28;20116;-69
2022/08/27 03:31:05;;;;;;;33.63;16.65;;;;;;;21.92;83.63;100735.72;5008152;28;20085;-69
2022/08/27 03:33:34;;;;;;;33.63;16.60;;;;;;;21.90;83.89;100732.34;5009091;28;20576;-69
2022/08/27 03:36:00;;;;;;;33.92;16.77;;;;;;;21.63;85.10;100719.06;5008063;28;20050;-69
2022/08/27 03:38:27;;;;;;;36.80;16.40;;;;;;;21.78;85.08;100717.56;4993049;28;20051;-69
2022/08/27 03:40:54;;;;;;;34.53;15.75;;;;;;;21.99;84.20;100719.97;4969829;28;20042;-69
2022/08/27 03:43:22;;;;;;;33.30;17.08;;;;;;;22.25;82.40;100718.16;4969881;28;20700;-69
2022/08/27 03:45:50;;;;;;;33.20;16.00;;;;;;;22.36;81.39;100712.59;4984964;28;20501;-69
2022/08/27 03:48:18;;;;;;;40.13;16.80;;;;;;;22.32;81.86;100705.88;5005632;28;20552;-69
2022/08/27 03:50:46;;;;;;;34.22;16.95;;;;;;;22.12;82.73;100715.06;5008945;28;20096;-69
2022/08/27 03:53:14;;;;;;;42.95;17.23;;;;;;;22.13;83.11;100708.75;5007896;28;20494;-69
2022/08/27 03:55:41;;;;;;;39.95;17.20;;;;;;;22.34;82.23;100703.91;4997283;28;20073;-69
2022/08/27 03:58:07;;;;;;;38.88;16.92;;;;;;;22.31;82.12;100698.88;4990841;28;20046;-69
2022/08/27 04:00:35;;;;;;;33.78;16.30;;;;;;;22.24;82.54;100696.00;4987817;28;20313;-69
2022/08/27 04:03:04;;;;;;;36.40;17.48;;;;;;;22.26;82.95;100706.50;4997587;28;20104;-69
2022/08/27 04:05:30;;;;;;;36.97;17.25;;;;;;;22.33;82.39;100703.06;5003602;28;20057;-69
2022/08/27 04:07:56;;;;;;;41.35;18.20;;;;;;;22.24;83.19;100709.34;5007490;28;20700;-69
2022/08/27 04:10:23;;;;;;;40.70;17.98;;;;;;;22.14;83.95;100699.72;5005536;28;20050;-69
2022/08/27 04:12:49;;;;;;;49.55;19.08;;;;;;;22.39;82.93;100698.09;5007224;28;20056;-69
2022/08/27 04:15:15;;;;;;;41.03;19.67;;;;;;;22.32;83.34;100696.03;5006200;28;20065;-69
2022/08/27 04:17:43;;;;;;;40.75;19.90;;;;;;;22.39;83.28;100696.25;5005626;28;20049;-69
2022/08/27 04:20:10;;;;;;;44.10;18.80;;;;;;;22.42;82.67;100698.63;5007133;28;20096;-69
2022/08/27 04:22:38;;;;;;;40.08;21.35;;;;;;;22.43;82.73;100702.13;5006598;28;20046;-69
2022/08/27 04:25:05;;;;;;;47.20;20.73;;;;;;;22.39;82.84;100706.13;5007062;28;20045;-69
2022/08/27 04:27:31;;;;;;;44.55;20.52;;;;;;;21.92;85.41;100708.19;5008455;28;20555;-69
2022/08/27 04:30:00;;;;;;;50.00;20.13;;;;;;;22.06;85.42;100716.50;5001649;28;20560;-69
2022/08/27 04:32:27;;;;;;;43.90;20.30;;;;;;;22.03;85.87;100711.47;4998407;28;20093;-69
2022/08/27 04:34:55;;;;;;;47.38;21.25;;;;;;;22.22;84.54;100716.66;5004761;28;20462;-69
2022/08/27 04:37:23;;;;;;;46.13;21.42;;;;;;;22.63;82.49;100711.59;4999257;28;20096;-69
2022/08/27 04:39:49;;;;;;;50.88;21.55;;;;;;;22.29;84.27;100712.38;4995866;28;20050;-69
2022/08/27 04:42:17;;;;;;;46.05;20.20;;;;;;;22.28;84.10;100717.88;4995878;28;20050;-69
2022/08/27 04:44:44;;;;;;;51.03;23.10;;;;;;;22.13;85.36;100712.25;5002713;28;20509;-69
2022/08/27 04:47:12;;;;;;;49.47;23.58;;;;;;;22.38;84.35;100715.94;5001228;28;20120;-69
2022/08/27 04:49:39;;;;;;;49.08;22.63;;;;;;;22.45;83.74;100711.66;5007423;28;20050;-69
2022/08/27 04:52:06;;;;;;;47.47;23.27;;;;;;;22.38;84.36;100725.78;5006475;28;20069;-69
2022/08/27 04:54:34;;;;;;;48.70;23.13;;;;;;;22.31;84.92;100715.75;5004672;28;20054;-69
2022/08/27 04:57:01;;;;;;;44.22;22.13;;;;;;;21.90;87.51;100720.84;4998162;28;20066;-69
2022/08/27 04:59:28;;;;;;;46.03;22.00;;;;;;;21.94;88.04;100720.44;5002479;28;20128;-69
2022/08/27 05:01:55;;;;;;;43.53;21.92;;;;;;;22.20;86.45;100718.66;5000339;28;20058;-69
2022/08/27 05:04:21;;;;;;;47.63;22.35;;;;;;;22.05;87.03;100712.19;4999834;28;20069;-69
2022/08/27 05:06:49;;;;;;;53.38;23.23;;;;;;;22.48;84.93;100713.16;5005103;28;20520;-69
2022/08/27 05:09:18;;;;;;;55.53;24.40;;;;;;;22.51;84.97;100713.69;5005657;28;20132;-69
2022/08/27 05:11:45;;;;;;;51.30;22.30;;;;;;;22.18;86.52;100717.13;5006462;28;20058;-69
2022/08/27 05:14:14;;;;;;;48.65;22.10;;;;;;;22.05;88.30;100719.34;5006163;28;20413;-69
2022/08/27 05:16:41;;;;;;;50.65;23.55;;;;;;;22.01;89.07;100720.66;5003777;28;20056;-69
2022/08/27 05:19:09;;;;;;;41.13;21.75;;;;;;;22.06;88.44;100723.72;4996215;28;20074;-69
2022/08/27 05:21:38;;;;;;;48.47;23.40;;;;;;;22.04;88.61;100712.31;4988012;28;20043;-69
2022/08/27 05:24:07;;;;;;;57.00;26.15;;;;;;;22.00;89.08;100714.47;4985744;28;20425;-69
2022/08/27 05:26:36;;;;;;;50.58;23.42;;;;;;;22.06;89.14;100711.16;4986876;28;20494;-69
2022/08/27 05:29:04;;;;;;;48.45;22.35;;;;;;;21.72;90.99;100718.16;5007511;28;20049;-70
2022/08/27 05:31:30;;;;;;;48.83;22.40;;;;;;;21.65;91.87;100711.75;5006876;28;20049;-69
2022/08/27 05:33:58;;;;;;;41.78;21.58;;;;;;;21.80;91.05;100720.94;5004379;28;20074;-69
2022/08/27 05:36:28;;;;;;;45.33;22.42;;;;;;;21.95;90.39;100724.75;4989479;28;20046;-69
2022/08/27 05:38:55;;;;;;;54.92;24.70;;;;;;;21.99;90.07;100720.78;4985905;28;20534;-69
2022/08/27 05:41:26;;;;;;;50.10;24.25;;;;;;;21.77;91.42;100718.53;4986701;28;20042;-69
2022/08/27 05:43:56;;;;;;;54.55;24.15;;;;;;;21.85;91.58;100727.47;4985289;28;20042;-69
2022/08/27 05:46:24;;;;;;;44.50;23.02;;;;;;;22.01;91.08;100707.28;5003563;28;20046;-69
2022/08/27 05:48:51;;;;;;;51.80;24.48;;;;;;;21.95;91.21;100718.59;4999576;28;20042;-69
2022/08/27 05:51:20;;;;;;;54.38;24.00;;;;;;;21.91;91.64;100723.41;5001604;28;20089;-69
2022/08/27 05:53:47;;;;;;;52.65;24.20;;;;;;;22.08;90.69;100725.22;5005349;28;20041;-69
2022/08/27 05:56:15;;;;;;;53.05;23.45;;;;;;;22.17;90.75;100721.59;5007424;28;20460;-68
2022/08/27 06:01:30;;;;;;;52.35;23.20;;;;;;;22.27;90.02;100732.22;5005649;28;20516;-69
2022/08/27 06:03:56;;;;;;;44.83;22.30;;;;;;;22.47;88.56;100730.22;5000148;28;20457;-68
2022/08/27 06:06:23;;;;;;;43.20;21.77;;;;;;;22.32;89.45;100730.75;4995888;28;20100;-68
2022/08/27 06:08:50;;;;;;;44.38;22.05;;;;;;;22.22;90.18;100730.00;4991343;28;20045;-68
2022/08/27 06:11:18;;;;;;;45.28;22.10;;;;;;;21.94;91.62;100736.44;4996222;28;20516;-68
2022/08/27 06:13:44;;;;;;;49.97;22.80;;;;;;;22.16;91.20;100724.47;4998203;28;20066;-68
2022/08/27 06:16:14;;;;;;;46.50;23.85;;;;;;;22.35;89.59;100731.47;5000709;28;20073;-69
2022/08/27 06:18:44;;;;;;;45.00;23.58;;;;;;;22.51;89.31;100727.06;5004161;28;20077;-69
2022/08/27 06:21:11;;;;;;;48.05;24.52;;;;;;;22.39;89.34;100732.81;5004772;28;20066;-69
2022/08/27 06:23:38;;;;;;;48.83;24.60;;;;;;;22.18;90.40;100727.78;5005689;28;20250;-69
2022/08/27 06:26:06;;;;;;;50.17;24.42;;;;;;;22.29;90.67;100732.91;4982614;28;20081;-69
2022/08/27 06:28:34;;;;;;;52.45;24.35;;;;;;;22.65;88.23;100734.50;4985016;28;20050;-69
2022/08/27 06:31:05;;;;;;;54.22;25.15;;;;;;;22.56;88.54;100731.94;4986172;28;20051;-69
2022/08/27 06:33:33;;;;;;;48.55;23.98;;;;;;;22.39;89.84;100735.50;4994233;28;20053;-69
2022/08/27 06:36:01;;;;;;;48.42;24.05;;;;;;;22.29;90.13;100733.75;4997448;28;20104;-69
2022/08/27 06:38:27;;;;;;;46.20;22.90;;;;;;;22.56;89.04;100731.94;4993720;28;20046;-69
2022/08/27 06:40:55;;;;;;;47.88;23.30;;;;;;;22.65;88.49;100723.00;4995035;28;20046;-69
2022/08/27 06:43:21;;;;;;;40.58;22.58;;;;;;;22.58;87.90;100722.75;5004668;28;20076;-69
2022/08/27 06:45:48;;;;;;;43.35;23.30;;;;;;;22.59;87.66;100728.94;5003683;28;20461;-69
2022/08/27 06:48:14;;;;;;;48.17;21.50;;;;;;;22.68;86.96;100717.38;5005494;28;20042;-69
2022/08/27 06:50:42;;;;;;;40.35;21.63;;;;;;;23.27;85.03;100716.50;5003291;28;20074;-69
2022/08/27 06:53:10;;;;;;;42.85;21.75;;;;;;;23.63;82.94;100720.66;4991167;28;20058;-69
2022/08/27 06:55:40;;;;;;;38.63;20.05;;;;;;;23.33;82.79;100723.03;5004139;28;20096;-69
2022/08/27 06:58:07;;;;;;;35.92;20.50;;;;;;;23.35;82.40;100729.06;5005011;28;20054;-69
2022/08/27 07:00:33;;;;;;;38.20;18.95;;;;;;;23.27;82.92;100730.72;4998802;28;20057;-68
2022/08/27 07:03:00;;;;;;;44.35;20.88;;;;;;;23.44;82.09;100728.13;5004700;28;20049;-68
2022/08/27 07:05:26;;;;;;;40.25;19.50;;;;;;;23.04;84.09;100736.78;4990295;28;20531;-68
2022/08/27 07:07:53;;;;;;;38.78;20.23;;;;;;;22.88;84.15;100737.53;4984033;28;20113;-68
2022/08/27 07:10:20;;;;;;;45.22;20.48;;;;;;;23.02;83.77;100742.28;4991408;28;20124;-68
2022/08/27 07:12:47;;;;;;;36.92;19.15;;;;;;;23.04;83.64;100742.97;5000272;28;20109;-68
2022/08/27 07:15:13;;;;;;;37.88;20.08;;;;;;;23.20;82.67;100740.38;4998563;28;20119;-68
2022/08/27 07:17:39;;;;;;;36.33;18.75;;;;;;;23.12;82.83;100747.53;5005107;28;20057;-68
2022/08/27 07:20:07;;;;;;;37.33;17.38;;;;;;;22.85;83.33;100745.88;5004497;28;20042;-68
2022/08/27 07:22:33;;;;;;;30.98;15.75;;;;;;;23.15;81.90;100753.38;5002572;28;20107;-68
2022/08/27 07:25:00;;;;;;;30.35;16.55;;;;;;;23.05;82.38;100752.69;5005644;28;20099;-68
2022/08/27 07:27:27;;;;;;;30.05;15.45;;;;;;;22.98;82.38;100751.63;5004163;28;20502;-68
2022/08/27 07:29:54;;;;;;;26.08;14.07;;;;;;;23.22;81.53;100761.59;5002077;28;20065;-68
2022/08/27 07:32:20;;;;;;;34.65;15.10;;;;;;;23.27;81.33;100752.13;5002957;28;20116;-68
2022/08/27 07:34:46;;;;;;;33.10;15.25;;;;;;;23.31;81.03;100757.97;4999469;28;20050;-68
2022/08/27 07:37:13;;;;;;;31.38;14.88;;;;;;;23.57;79.72;100761.47;5000194;28;20062;-69
2022/08/27 07:39:40;;;;;;;30.27;14.30;;;;;;;23.55;79.94;100758.09;5002234;28;20049;-69
2022/08/27 07:44:51;;;;;;;23.42;12.75;;;;;;;23.56;78.92;100764.28;4996992;28;20383;-69
2022/08/27 07:47:17;;;;;;;18.52;11.75;;;;;;;23.11;80.50;100762.72;5003530;28;20077;-69
2022/08/27 07:49:44;;;;;;;22.33;11.95;;;;;;;23.44;79.35;100768.25;5004176;28;20053;-69
2022/08/27 07:52:11;;;;;;;21.70;12.23;;;;;;;23.67;78.47;100769.34;5002807;28;20069;-69
2022/08/27 07:54:37;;;;;;;24.88;11.52;;;;;;;23.70;77.70;100763.66;5004412;28;20053;-69
2022/08/27 07:57:04;;;;;;;21.75;11.65;;;;;;;23.87;78.07;100768.09;5005977;28;20046;-69
2022/08/27 07:59:30;;;;;;;24.33;11.10;;;;;;;23.69;77.03;100762.81;4992975;28;20050;-69
2022/08/27 08:01:58;;;;;;;21.92;9.90;;;;;;;23.73;76.98;100766.00;4998720;28;20101;-68
2022/08/27 08:04:25;;;;;;;17.45;9.48;;;;;;;23.52;77.85;100769.13;4998727;28;20124;-68
2022/08/27 08:06:52;;;;;;;19.70;9.65;;;;;;;23.54;77.44;100777.81;5006655;28;20600;-68
2022/08/27 08:09:20;;;;;;;18.92;9.73;;;;;;;23.59;76.95;100767.47;5006742;28;20400;-69
2022/08/27 08:11:47;;;;;;;14.73;9.00;;;;;;;23.47;76.97;100774.13;5007591;28;20053;-69
2022/08/27 08:14:14;;;;;;;17.00;8.82;;;;;;;23.33;77.73;100776.53;5007601;28;20061;-69
2022/08/27 08:16:40;;;;;;;13.13;8.05;;;;;;;23.51;77.50;100783.50;5007581;28;20054;-69
2022/08/27 08:19:08;;;;;;;14.73;7.97;;;;;;;23.90;76.01;100780.28;5006890;28;20073;-69
2022/08/27 08:21:35;;;;;;;16.98;9.25;;;;;;;23.95;75.55;100781.47;4999234;28;20056;-69
2022/08/27 08:24:01;;;;;;;15.15;7.65;;;;;;;24.11;74.63;100783.34;5004511;28;20531;-69
2022/08/27 08:26:28;;;;;;;15.55;8.90;;;;;;;24.19;75.22;100786.91;5008263;28;20536;-69
2022/08/27 08:28:55;;;;;;;11.88;7.15;;;;;;;23.76;75.93;100784.44;5005348;28;20074;-69
2022/08/27 08:31:22;;;;;;;11.80;7.68;;;;;;;24.18;75.02;100779.88;5001715;28;20100;-69
2022/08/27 08:33:49;;;;;;;14.02;7.43;;;;;;;24.31;75.50;100787.44;5007833;28;20784;-69
2022/08/27 08:36:17;;;;;;;12.85;7.82;;;;;;;24.40;74.77;100793.59;5000348;28;20053;-69
2022/08/27 08:38:46;;;;;;;15.02;8.35;;;;;;;24.48;73.19;100790.94;5006998;28;20057;-69
2022/08/27 08:41:33;;;;;;;16.40;7.53;;;;;;;24.19;73.82;100796.78;5003039;28;20046;-69
2022/08/27 08:44:02;;;;;;;15.00;8.13;;;;;;;24.30;74.26;100801.81;4986653;28;20081;-69
2022/08/27 08:46:35;;;;;;;13.10;7.57;;;;;;;24.11;73.94;100792.22;5005713;28;20100;-69
2022/08/27 08:49:11;;;;;;;11.25;7.22;;;;;;;24.31;73.78;100798.16;5007024;28;20048;-69
2022/08/27 08:51:41;;;;;;;12.93;8.55;;;;;;;24.09;73.63;100796.06;5008285;28;20104;-69
2022/08/27 08:54:14;;;;;;;17.85;8.05;;;;;;;23.67;74.70;100796.97;5000956;28;20077;-69
2022/08/27 08:56:50;;;;;;;20.40;9.13;;;;;;;23.87;75.41;100796.69;4990028;28;20429;-69
2022/08/27 08:59:24;;;;;;;17.63;9.40;;;;;;;24.20;74.54;100801.16;5028243;28;20091;-69
2022/08/27 09:01:51;;;;;;;16.20;9.48;;;;;;;24.41;73.68;100800.66;5004771;28;20046;-69
2022/08/27 09:04:17;;;;;;;16.05;8.65;;;;;;;24.77;72.61;100796.63;5005074;28;20054;-69
2022/08/27 09:06:52;;;;;;;17.40;9.07;;;;;;;24.82;71.74;100802.31;4991391;28;20050;-69
2022/08/27 09:09:22;;;;;;;15.25;9.30;;;;;;;25.19;69.81;100794.56;4985549;28;20050;-69
2022/08/27 09:11:56;;;;;;;11.70;7.40;;;;;;;24.86;70.75;100801.00;4978967;28;20051;-69
2022/08/27 09:14:31;;;;;;;14.52;8.25;;;;;;;24.73;70.71;100806.84;4970913;28;20299;-69
2022/08/27 09:16:59;;;;;;;12.27;7.85;;;;;;;24.49;71.53;100812.22;4992950;28;20486;-68
2022/08/27 09:19:26;;;;;;;16.02;7.95;;;;;;;24.82;70.74;100806.84;5006471;28;20497;-69
2022/08/27 09:22:01;;;;;;;10.85;7.38;;;;;;;25.04;69.75;100803.47;5006302;28;20072;-69
2022/08/27 09:24:39;;;;;;;10.60;6.70;;;;;;;25.48;68.46;100803.84;5004836;28;20050;-69
2022/08/27 09:27:06;;;;;;;12.15;6.85;;;;;;;25.77;66.25;100804.09;5006813;28;20042;-69
2022/08/27 09:29:32;;;;;;;15.88;6.38;;;;;;;25.64;66.70;100810.03;5006835;28;20045;-68
2022/08/27 09:32:04;;;;;;;11.48;6.80;;;;;;;25.31;67.51;100802.25;5005246;28;20057;-68
2022/08/27 09:34:35;;;;;;;17.65;7.15;;;;;;;25.12;68.73;100809.69;4990303;28;20077;-68
2022/08/27 09:37:07;;;;;;;17.67;8.10;;;;;;;24.76;70.03;100811.03;5002765;28;20501;-68
2022/08/27 09:39:46;;;;;;;19.63;9.05;;;;;;;24.50;70.27;100810.38;5002720;28;20072;-68
2022/08/27 09:42:25;;;;;;;15.27;8.65;;;;;;;24.17;72.09;100810.34;5004035;28;20048;-69
2022/08/27 09:44:53;;;;;;;16.45;8.32;;;;;;;24.44;71.61;100811.88;4986426;28;20038;-69
2022/08/27 09:47:20;;;;;;;14.18;8.20;;;;;;;24.34;72.11;100815.72;5006636;28;20048;-69
2022/08/27 09:49:47;;;;;;;13.40;7.63;;;;;;;24.33;71.92;100822.91;5004159;28;20088;-69
2022/08/27 09:52:30;;;;;;;13.77;7.53;;;;;;;24.49;71.02;100817.59;5001441;28;20050;-69
2022/08/27 09:54:57;;;;;;;14.77;7.93;;;;;;;24.07;73.05;100819.50;5004123;28;20050;-69
2022/08/27 09:57:33;;;;;;;11.43;7.47;;;;;;;23.73;74.37;100816.88;4996428;28;20557;-69
2022/08/27 10:00:00;;;;;;;15.07;7.97;;;;;;;23.71;74.45;100818.91;5004477;28;20120;-69
2022/08/27 10:02:27;;;;;;;15.13;8.93;;;;;;;23.63;75.11;100821.53;5002733;28;20108;-69
2022/08/27 10:04:57;;;;;;;13.18;7.90;;;;;;;23.99;74.41;100814.94;5000661;28;20095;-69
2022/08/27 10:07:35;;;;;;;12.95;7.68;;;;;;;24.06;73.89;100813.28;4996398;28;20048;-69
2022/08/27 10:10:08;;;;;;;11.23;7.22;;;;;;;24.31;73.14;100811.53;4994473;28;20430;-69
2022/08/27 10:12:46;;;;;;;13.93;7.50;;;;;;;24.24;72.59;100823.94;4998525;28;20045;-69
2022/08/27 10:15:15;;;;;;;14.27;6.82;;;;;;;24.08;73.67;100808.63;4990918;28;20063;-69
2022/08/27 10:17:48;;;;;;;12.30;7.43;;;;;;;23.91;73.99;100806.88;5000223;28;20054;-69
2022/08/27 10:20:20;;;;;;;14.32;8.45;;;;;;;24.00;74.19;100808.59;4998796;28;20116;-69
2022/08/27 10:22:59;;;;;;;13.30;8.00;;;;;;;24.11;73.87;100805.63;4985580;28;20422;-69
2022/08/27 10:25:37;;;;;;;13.65;8.20;;;;;;;24.50;72.91;100805.03;4984025;28;20050;-69
2022/08/27 10:28:14;;;;;;;14.20;7.63;;;;;;;25.15;72.92;100814.69;4985775;28;20561;-69
2022/08/27 10:30:57;;;;;;;13.30;7.30;;;;;;;25.62;69.92;100813.88;4982838;28;20046;-70
2022/08/27 10:33:32;;;;;;;11.80;7.07;;;;;;;25.95;67.74;100801.97;4998296;28;20077;-69
2022/08/27 10:36:07;;;;;;;12.85;7.55;;;;;;;26.34;65.96;100809.13;5002035;28;20513;-69
2022/08/27 10:38:40;;;;;;;11.57;6.80;;;;;;;26.25;65.93;100810.19;5003803;28;20054;-69
2022/08/27 10:41:16;;;;;;;13.63;7.18;;;;;;;26.58;65.34;100817.00;5001967;28;20042;-69
2022/08/27 10:44:07;;;;;;;14.13;6.88;;;;;;;26.59;64.69;100807.94;5004224;28;20493;-69
2022/08/27 10:46:47;;;;;;;15.02;7.00;;;;;;;26.99;62.03;100810.25;5004243;28;20549;-68
2022/08/27 10:49:22;;;;;;;13.52;6.60;;;;;;;26.60;62.90;100818.50;5004269;28;20041;-68
2022/08/27 10:51:55;;;;;;;11.85;6.20;;;;;;;26.83;62.84;100818.50;4998987;28;20074;-68
2022/08/27 10:54:28;;;;;;;10.65;6.30;;;;;;;27.39;61.93;100808.97;5002636;28;20057;-68
2022/08/27 10:56:57;;;;;;;8.95;5.80;;;;;;;27.90;60.01;100812.56;5003997;28;20059;-68
2022/08/27 10:59:33;;;;;;;7.32;5.38;;;;;;;28.26;57.22;100809.06;5005213;28;20042;-69
2022/08/27 11:02:10;;;;;;;9.77;6.45;;;;;;;27.45;58.80;100818.19;5003770;28;20066;-68
2022/08/27 11:04:40;;;;;;;11.30;6.75;;;;;;;27.20;60.06;100824.88;4998611;28;20050;-68
2022/08/27 11:07:13;;;;;;;13.10;6.57;;;;;;;27.26;59.80;100818.75;5004910;28;20099;-68
2022/08/27 11:09:48;;;;;;;11.77;7.35;;;;;;;26.81;60.48;100825.88;5003887;28;20472;-68
2022/08/27 11:12:18;;;;;;;10.10;6.45;;;;;;;27.37;58.52;100812.88;5001035;28;20053;-69
2022/08/27 11:14:51;;;;;;;16.30;6.63;;;;;;;27.16;59.92;100807.41;5003680;28;20139;-68
2022/08/27 11:17:26;;;;;;;11.02;6.68;;;;;;;27.15;59.59;100797.66;5003476;28;20148;-68
2022/08/27 11:19:56;;;;;;;12.95;6.80;;;;;;;27.12;60.37;100801.56;5004557;28;20049;-68
2022/08/27 11:22:29;;;;;;;10.43;6.63;;;;;;;27.78;60.27;100795.22;5003703;28;20061;-68
2022/08/27 11:25:02;;;;;;;15.20;6.20;;;;;;;28.32;57.73;100798.31;5004625;28;20046;-68
2022/08/27 11:27:31;;;;;;;11.20;6.28;;;;;;;28.25;56.29;100793.88;5005124;28;20457;-67